sensor_id;sensor_type;location;lat;lon;timestamp;P1;durP1;ratioP1;P2;durP2;ratioP2
16159;SDS011;8185;57.818;15.224;2023-02-19T10:00:25;0.50;;;0.40;;
16159;SDS011;8185;57.818;15.224;2023-02-19T10:02:58;0.40;;;0.40;;
16159;SDS011;8185;57.818;15.224;2023-02-19T10:05:31;0.77;;;0.50;;
16159;SDS011;8185;57.818;15.224;2023-02-19T10:07:59;0.30;;;0.30;;
16159;SDS011;8185;57.818;15.224;2023-02-19T10:13:00;1.63;;;0.57;;
16159;SDS011;8185;57.818;15.224;2023-02-19T10:18:13;0.50;;;0.40;;
16159;SDS011;8185;57.818;15.224;2023-02-19T10:20:43;0.70;;;0.50;;
16159;SDS011;8185;57.818;15.224;2023-02-19T10:23:11;0.97;;;0.40;;
16159;SDS011;8185;57.818;15.224;2023-02-19T10:25:42;0.50;;;0.47;;
16159;SDS011;8185;57.818;15.224;2023-02-19T10:28:13;0.83;;;0.40;;
16159;SDS011;8185;57.818;15.224;2023-02-19T10:30:42;0.93;;;0.47;;
16159;SDS011;8185;57.818;15.224;2023-02-19T10:33:10;0.60;;;0.40;;
16159;SDS011;8185;57.818;15.224;2023-02-19T10:35:53;0.40;;;0.30;;
16159;SDS011;8185;57.818;15.224;2023-02-19T10:38:23;0.57;;;0.37;;
16159;SDS011;8185;57.818;15.224;2023-02-19T10:40:56;0.60;;;0.30;;
16159;SDS011;8185;57.818;15.224;2023-02-19T10:43:26;0.47;;;0.47;;
16159;SDS011;8185;57.818;15.224;2023-02-19T10:45:58;0.77;;;0.40;;
16159;SDS011;8185;57.818;15.224;2023-02-19T10:48:31;1.93;;;0.40;;
16159;SDS011;8185;57.818;15.224;2023-02-19T10:51:01;1.93;;;0.37;;
16159;SDS011;8185;57.818;15.224;2023-02-19T10:53:38;0.60;;;0.30;;
16159;SDS011;8185;57.818;15.224;2023-02-19T10:56:11;1.10;;;0.60;;
16159;SDS011;8185;57.818;15.224;2023-02-19T10:58:40;0.60;;;0.40;;
16159;SDS011;8185;57.818;15.224;2023-02-19T11:01:18;0.80;;;0.30;;
16159;SDS011;8185;57.818;15.224;2023-02-19T11:03:48;0.30;;;0.30;;
16159;SDS011;8185;57.818;15.224;2023-02-19T11:06:17;0.40;;;0.40;;
16159;SDS011;8185;57.818;15.224;2023-02-19T11:08:48;0.63;;;0.43;;
16159;SDS011;8185;57.818;15.224;2023-02-19T11:11:25;0.40;;;0.30;;
16159;SDS011;8185;57.818;15.224;2023-02-19T11:13:56;2.77;;;0.50;;
16159;SDS011;8185;57.818;15.224;2023-02-19T11:16:36;1.20;;;0.50;;
16159;SDS011;8185;57.818;15.224;2023-02-19T11:21:54;0.67;;;0.40;;
16159;SDS011;8185;57.818;15.224;2023-02-19T11:24:27;0.47;;;0.40;;
16159;SDS011;8185;57.818;15.224;2023-02-19T11:26:58;0.30;;;0.30;;
16159;SDS011;8185;57.818;15.224;2023-02-19T11:29:28;1.70;;;0.83;;
16159;SDS011;8185;57.818;15.224;2023-02-19T11:32:07;0.40;;;0.33;;
16159;SDS011;8185;57.818;15.224;2023-02-19T11:34:50;1.97;;;0.40;;
16159;SDS011;8185;57.818;15.224;2023-02-19T11:37:19;0.30;;;0.30;;
16159;SDS011;8185;57.818;15.224;2023-02-19T11:39:47;0.40;;;0.30;;
16159;SDS011;8185;57.818;15.224;2023-02-19T11:42:29;1.07;;;0.27;;
16159;SDS011;8185;57.818;15.224;2023-02-19T11:45:10;1.07;;;0.40;;
16159;SDS011;8185;57.818;15.224;2023-02-19T11:47:52;0.60;;;0.40;;
16159;SDS011;8185;57.818;15.224;2023-02-19T11:50:41;0.50;;;0.33;;
16159;SDS011;8185;57.818;15.224;2023-02-19T11:53:16;0.40;;;0.40;;
16159;SDS011;8185;57.818;15.224;2023-02-19T11:55:52;1.37;;;0.70;;
16159;SDS011;8185;57.818;15.224;2023-02-19T11:58:34;0.80;;;0.40;;
16159;SDS011;8185;57.818;15.224;2023-02-19T12:01:12;1.50;;;0.40;;
16159;SDS011;8185;57.818;15.224;2023-02-19T12:03:53;1.03;;;0.67;;
16159;SDS011;8185;57.818;15.224;2023-02-19T12:06:39;0.60;;;0.40;;
16159;SDS011;8185;57.818;15.224;2023-02-19T12:09:26;0.77;;;0.43;;
16159;SDS011;8185;57.818;15.224;2023-02-19T12:12:12;0.30;;;0.30;;
16159;SDS011;8185;57.818;15.224;2023-02-19T12:14:55;0.30;;;0.30;;
16159;SDS011;8185;57.818;15.224;2023-02-19T12:17:47;0.30;;;0.20;;
16159;SDS011;8185;57.818;15.224;2023-02-19T12:20:33;0.67;;;0.30;;
16159;SDS011;8185;57.818;15.224;2023-02-19T12:23:19;0.37;;;0.30;;
16159;SDS011;8185;57.818;15.224;2023-02-19T12:26:10;0.40;;;0.30;;
16159;SDS011;8185;57.818;15.224;2023-02-19T12:31:54;0.83;;;0.37;;
16159;SDS011;8185;57.818;15.224;2023-02-19T12:34:46;0.20;;;0.20;;
16159;SDS011;8185;57.818;15.224;2023-02-19T12:37:34;0.90;;;0.30;;
16159;SDS011;8185;57.818;15.224;2023-02-19T12:40:16;0.40;;;0.30;;
16159;SDS011;8185;57.818;15.224;2023-02-19T12:43:00;0.50;;;0.33;;
16159;SDS011;8185;57.818;15.224;2023-02-19T12:45:40;1.07;;;0.50;;
16159;SDS011;8185;57.818;15.224;2023-02-19T12:48:12;0.33;;;0.33;;
16159;SDS011;8185;57.818;15.224;2023-02-19T12:50:46;0.20;;;0.20;;
16159;SDS011;8185;57.818;15.224;2023-02-19T12:53:23;0.30;;;0.30;;
16159;SDS011;8185;57.818;15.224;2023-02-19T12:56:02;0.20;;;0.20;;
16159;SDS011;8185;57.818;15.224;2023-02-19T12:58:37;0.37;;;0.30;;
16159;SDS011;8185;57.818;15.224;2023-02-19T13:01:10;0.27;;;0.20;;
16159;SDS011;8185;57.818;15.224;2023-02-19T13:03:47;0.40;;;0.30;;
16159;SDS011;8185;57.818;15.224;2023-02-19T13:06:25;0.60;;;0.40;;
16159;SDS011;8185;57.818;15.224;2023-02-19T13:08:59;0.53;;;0.30;;
16159;SDS011;8185;57.818;15.224;2023-02-19T13:11:34;1.07;;;0.43;;
16159;SDS011;8185;57.818;15.224;2023-02-19T13:14:11;0.30;;;0.30;;
16159;SDS011;8185;57.818;15.224;2023-02-19T13:16:45;0.50;;;0.30;;
16159;SDS011;8185;57.818;15.224;2023-02-19T13:19:16;0.60;;;0.23;;
16159;SDS011;8185;57.818;15.224;2023-02-19T13:21:43;0.40;;;0.30;;
16159;SDS011;8185;57.818;15.224;2023-02-19T13:24:34;0.20;;;0.20;;
16159;SDS011;8185;57.818;15.224;2023-02-19T13:27:10;1.63;;;0.53;;
16159;SDS011;8185;57.818;15.224;2023-02-19T13:29:58;0.23;;;0.23;;
16159;SDS011;8185;57.818;15.224;2023-02-19T13:32:47;1.43;;;0.50;;
16159;SDS011;8185;57.818;15.224;2023-02-19T13:35:34;0.40;;;0.40;;
16159;SDS011;8185;57.818;15.224;2023-02-19T13:38:21;0.67;;;0.40;;
16159;SDS011;8185;57.818;15.224;2023-02-19T13:40:52;1.10;;;0.30;;
16159;SDS011;8185;57.818;15.224;2023-02-19T13:43:24;1.00;;;0.40;;
16159;SDS011;8185;57.818;15.224;2023-02-19T13:45:54;0.73;;;0.30;;
16159;SDS011;8185;57.818;15.224;2023-02-19T13:48:25;0.53;;;0.40;;
16159;SDS011;8185;57.818;15.224;2023-02-19T13:53:58;3.23;;;0.60;;
16159;SDS011;8185;57.818;15.224;2023-02-19T13:56:38;0.50;;;0.43;;
16159;SDS011;8185;57.818;15.224;2023-02-19T14:02:08;1.37;;;0.30;;
16159;SDS011;8185;57.818;15.224;2023-02-19T14:04:52;0.30;;;0.30;;
16159;SDS011;8185;57.818;15.224;2023-02-19T14:25:23;0.97;;;0.30;;
16159;SDS011;8185;57.818;15.224;2023-02-19T14:27:59;1.20;;;0.40;;
16159;SDS011;8185;57.818;15.224;2023-02-19T14:30:29;0.73;;;0.40;;
16159;SDS011;8185;57.818;15.224;2023-02-19T14:33:00;0.40;;;0.30;;
16159;SDS011;8185;57.818;15.224;2023-02-19T14:35:30;0.60;;;0.60;;
16159;SDS011;8185;57.818;15.224;2023-02-19T14:38:01;0.40;;;0.40;;
16159;SDS011;8185;57.818;15.224;2023-02-19T14:40:31;0.30;;;0.30;;
16159;SDS011;8185;57.818;15.224;2023-02-19T14:43:02;1.17;;;0.40;;
16159;SDS011;8185;57.818;15.224;2023-02-19T14:45:33;0.37;;;0.37;;
16159;SDS011;8185;57.818;15.224;2023-02-19T14:48:09;0.47;;;0.47;;
16159;SDS011;8185;57.818;15.224;2023-02-19T14:50:45;0.40;;;0.30;;
16159;SDS011;8185;57.818;15.224;2023-02-19T14:53:16;2.40;;;0.90;;
16159;SDS011;8185;57.818;15.224;2023-02-19T14:55:47;0.73;;;0.40;;
16159;SDS011;8185;57.818;15.224;2023-02-19T14:58:16;0.40;;;0.40;;
16159;SDS011;8185;57.818;15.224;2023-02-19T15:00:49;0.40;;;0.40;;
16159;SDS011;8185;57.818;15.224;2023-02-19T15:03:25;2.90;;;0.50;;
16159;SDS011;8185;57.818;15.224;2023-02-19T15:05:55;0.73;;;0.40;;
16159;SDS011;8185;57.818;15.224;2023-02-19T15:08:28;2.60;;;0.50;;
16159;SDS011;8185;57.818;15.224;2023-02-19T15:11:01;0.90;;;0.53;;
16159;SDS011;8185;57.818;15.224;2023-02-19T15:13:33;0.73;;;0.47;;
16159;SDS011;8185;57.818;15.224;2023-02-19T15:16:00;0.87;;;0.50;;
16159;SDS011;8185;57.818;15.224;2023-02-19T15:18:29;1.33;;;0.67;;
16159;SDS011;8185;57.818;15.224;2023-02-19T15:21:01;1.93;;;0.50;;
16159;SDS011;8185;57.818;15.224;2023-02-19T15:23:30;0.90;;;0.40;;
16159;SDS011;8185;57.818;15.224;2023-02-19T15:26:00;1.10;;;0.50;;
16159;SDS011;8185;57.818;15.224;2023-02-19T15:28:29;0.93;;;0.57;;
16159;SDS011;8185;57.818;15.224;2023-02-19T15:31:05;0.50;;;0.50;;
16159;SDS011;8185;57.818;15.224;2023-02-19T15:33:39;0.53;;;0.30;;
16159;SDS011;8185;57.818;15.224;2023-02-19T15:36:15;0.60;;;0.40;;
16159;SDS011;8185;57.818;15.224;2023-02-19T15:38:51;1.23;;;0.50;;
16159;SDS011;8185;57.818;15.224;2023-02-19T15:41:21;1.20;;;0.70;;
16159;SDS011;8185;57.818;15.224;2023-02-19T15:43:51;1.20;;;0.70;;
16159;SDS011;8185;57.818;15.224;2023-02-19T15:46:23;0.83;;;0.50;;
16159;SDS011;8185;57.818;15.224;2023-02-19T15:48:54;1.73;;;0.50;;
16159;SDS011;8185;57.818;15.224;2023-02-19T15:51:26;1.60;;;0.67;;
16159;SDS011;8185;57.818;15.224;2023-02-19T15:53:58;0.50;;;0.43;;
16159;SDS011;8185;57.818;15.224;2023-02-19T15:56:32;0.30;;;0.30;;
16159;SDS011;8185;57.818;15.224;2023-02-19T15:59:02;0.70;;;0.53;;
16159;SDS011;8185;57.818;15.224;2023-02-19T16:01:32;1.03;;;0.70;;
16159;SDS011;8185;57.818;15.224;2023-02-19T16:04:03;0.80;;;0.50;;
16159;SDS011;8185;57.818;15.224;2023-02-19T16:06:49;0.70;;;0.50;;
16159;SDS011;8185;57.818;15.224;2023-02-19T16:09:22;0.80;;;0.50;;
16159;SDS011;8185;57.818;15.224;2023-02-19T16:11:55;0.60;;;0.40;;
16159;SDS011;8185;57.818;15.224;2023-02-19T16:14:27;1.33;;;0.70;;
16159;SDS011;8185;57.818;15.224;2023-02-19T16:16:57;0.50;;;0.47;;
16159;SDS011;8185;57.818;15.224;2023-02-19T16:19:33;1.17;;;0.50;;
16159;SDS011;8185;57.818;15.224;2023-02-19T16:22:11;1.70;;;0.60;;
16159;SDS011;8185;57.818;15.224;2023-02-19T16:24:43;1.77;;;0.50;;
16159;SDS011;8185;57.818;15.224;2023-02-19T16:27:11;1.83;;;0.50;;
16159;SDS011;8185;57.818;15.224;2023-02-19T16:29:39;1.70;;;0.73;;
16159;SDS011;8185;57.818;15.224;2023-02-19T16:32:14;1.70;;;0.70;;
16159;SDS011;8185;57.818;15.224;2023-02-19T16:34:44;0.80;;;0.50;;
16159;SDS011;8185;57.818;15.224;2023-02-19T16:37:31;1.10;;;0.60;;
16159;SDS011;8185;57.818;15.224;2023-02-19T16:43:37;2.60;;;0.60;;
16159;SDS011;8185;57.818;15.224;2023-02-19T16:46:07;1.43;;;0.70;;
16159;SDS011;8185;57.818;15.224;2023-02-19T16:48:36;1.47;;;0.60;;
16159;SDS011;8185;57.818;15.224;2023-02-19T16:51:05;2.23;;;0.50;;
16159;SDS011;8185;57.818;15.224;2023-02-19T16:53:33;0.60;;;0.40;;
16159;SDS011;8185;57.818;15.224;2023-02-19T16:56:01;1.03;;;0.50;;
16159;SDS011;8185;57.818;15.224;2023-02-19T16:58:28;0.67;;;0.60;;
16159;SDS011;8185;57.818;15.224;2023-02-19T17:00:55;1.80;;;0.70;;
16159;SDS011;8185;57.818;15.224;2023-02-19T17:03:23;0.70;;;0.60;;
16159;SDS011;8185;57.818;15.224;2023-02-19T17:05:52;2.10;;;0.53;;
16159;SDS011;8185;57.818;15.224;2023-02-19T17:08:31;1.37;;;0.50;;
16159;SDS011;8185;57.818;15.224;2023-02-19T17:11:01;2.60;;;0.90;;
16159;SDS011;8185;57.818;15.224;2023-02-19T17:13:29;0.80;;;0.50;;
16159;SDS011;8185;57.818;15.224;2023-02-19T17:15:56;0.60;;;0.50;;
16159;SDS011;8185;57.818;15.224;2023-02-19T17:18:24;3.47;;;0.63;;
16159;SDS011;8185;57.818;15.224;2023-02-19T17:20:53;0.90;;;0.50;;
16159;SDS011;8185;57.818;15.224;2023-02-19T17:23:23;2.77;;;0.60;;
16159;SDS011;8185;57.818;15.224;2023-02-19T17:25:52;0.67;;;0.63;;
16159;SDS011;8185;57.818;15.224;2023-02-19T17:28:19;0.70;;;0.50;;
16159;SDS011;8185;57.818;15.224;2023-02-19T17:30:46;0.60;;;0.60;;
16159;SDS011;8185;57.818;15.224;2023-02-19T17:33:14;1.53;;;0.60;;
16159;SDS011;8185;57.818;15.224;2023-02-19T17:35:41;1.00;;;0.60;;
16159;SDS011;8185;57.818;15.224;2023-02-19T17:38:09;1.23;;;0.53;;
16159;SDS011;8185;57.818;15.224;2023-02-19T17:40:37;1.10;;;0.53;;
16159;SDS011;8185;57.818;15.224;2023-02-19T17:43:06;1.03;;;0.57;;
16159;SDS011;8185;57.818;15.224;2023-02-19T17:45:33;0.90;;;0.50;;
16159;SDS011;8185;57.818;15.224;2023-02-19T17:48:01;1.03;;;0.40;;
16159;SDS011;8185;57.818;15.224;2023-02-19T17:50:29;1.30;;;0.57;;
16159;SDS011;8185;57.818;15.224;2023-02-19T17:52:57;4.40;;;0.80;;
16159;SDS011;8185;57.818;15.224;2023-02-19T17:55:24;1.23;;;0.47;;
16159;SDS011;8185;57.818;15.224;2023-02-19T17:57:52;1.70;;;0.60;;
16159;SDS011;8185;57.818;15.224;2023-02-19T18:00:21;1.53;;;0.60;;
16159;SDS011;8185;57.818;15.224;2023-02-19T18:02:50;1.17;;;0.73;;
16159;SDS011;8185;57.818;15.224;2023-02-19T18:05:17;3.17;;;0.67;;
16159;SDS011;8185;57.818;15.224;2023-02-19T18:07:45;0.97;;;0.50;;
16159;SDS011;8185;57.818;15.224;2023-02-19T18:10:14;0.70;;;0.50;;
16159;SDS011;8185;57.818;15.224;2023-02-19T18:12:42;1.57;;;0.83;;
16159;SDS011;8185;57.818;15.224;2023-02-19T18:15:10;1.93;;;0.70;;
16159;SDS011;8185;57.818;15.224;2023-02-19T18:17:43;1.33;;;0.77;;
16159;SDS011;8185;57.818;15.224;2023-02-19T18:20:11;2.73;;;0.90;;
16159;SDS011;8185;57.818;15.224;2023-02-19T18:22:39;2.03;;;0.90;;
16159;SDS011;8185;57.818;15.224;2023-02-19T18:25:10;1.47;;;0.90;;
16159;SDS011;8185;57.818;15.224;2023-02-19T18:27:37;1.00;;;0.53;;
16159;SDS011;8185;57.818;15.224;2023-02-19T18:30:05;3.30;;;0.70;;
16159;SDS011;8185;57.818;15.224;2023-02-19T18:32:33;1.37;;;0.80;;
16159;SDS011;8185;57.818;15.224;2023-02-19T18:35:02;1.03;;;0.70;;
16159;SDS011;8185;57.818;15.224;2023-02-19T18:37:30;1.10;;;0.70;;
16159;SDS011;8185;57.818;15.224;2023-02-19T18:39:58;0.80;;;0.67;;
16159;SDS011;8185;57.818;15.224;2023-02-19T18:42:25;1.97;;;1.20;;
16159;SDS011;8185;57.818;15.224;2023-02-19T18:44:53;3.07;;;2.00;;
16159;SDS011;8185;57.818;15.224;2023-02-19T18:47:21;2.97;;;2.07;;
16159;SDS011;8185;57.818;15.224;2023-02-19T18:49:51;2.20;;;1.90;;
16159;SDS011;8185;57.818;15.224;2023-02-19T18:52:21;2.63;;;1.80;;
16159;SDS011;8185;57.818;15.224;2023-02-19T18:54:50;3.33;;;1.70;;
16159;SDS011;8185;57.818;15.224;2023-02-19T18:57:19;2.13;;;1.07;;
16159;SDS011;8185;57.818;15.224;2023-02-19T18:59:48;1.47;;;1.10;;
16159;SDS011;8185;57.818;15.224;2023-02-19T19:02:15;1.43;;;1.20;;
16159;SDS011;8185;57.818;15.224;2023-02-19T19:04:46;1.70;;;1.10;;
16159;SDS011;8185;57.818;15.224;2023-02-19T19:07:14;1.23;;;1.00;;
16159;SDS011;8185;57.818;15.224;2023-02-19T19:09:43;2.83;;;0.90;;
16159;SDS011;8185;57.818;15.224;2023-02-19T19:12:11;2.40;;;0.83;;
16159;SDS011;8185;57.818;15.224;2023-02-19T19:14:38;1.73;;;0.70;;
16159;SDS011;8185;57.818;15.224;2023-02-19T19:17:05;2.37;;;0.80;;
16159;SDS011;8185;57.818;15.224;2023-02-19T19:19:32;1.00;;;0.90;;
16159;SDS011;8185;57.818;15.224;2023-02-19T19:22:00;2.07;;;0.80;;
16159;SDS011;8185;57.818;15.224;2023-02-19T19:24:27;0.93;;;0.80;;
16159;SDS011;8185;57.818;15.224;2023-02-19T19:26:56;1.00;;;0.70;;
16159;SDS011;8185;57.818;15.224;2023-02-19T19:29:23;2.07;;;0.80;;
16159;SDS011;8185;57.818;15.224;2023-02-19T19:31:50;1.50;;;0.70;;
16159;SDS011;8185;57.818;15.224;2023-02-19T19:34:17;1.67;;;0.70;;
16159;SDS011;8185;57.818;15.224;2023-02-19T19:36:45;2.07;;;0.93;;
16159;SDS011;8185;57.818;15.224;2023-02-19T19:39:12;1.03;;;0.70;;
16159;SDS011;8185;57.818;15.224;2023-02-19T19:41:40;3.30;;;1.00;;
16159;SDS011;8185;57.818;15.224;2023-02-19T19:44:08;1.23;;;0.70;;
16159;SDS011;8185;57.818;15.224;2023-02-19T19:46:41;0.80;;;0.60;;
16159;SDS011;8185;57.818;15.224;2023-02-19T19:49:10;3.03;;;0.80;;
16159;SDS011;8185;57.818;15.224;2023-02-19T19:51:37;6.87;;;0.90;;
16159;SDS011;8185;57.818;15.224;2023-02-19T19:54:05;8.50;;;1.37;;
16159;SDS011;8185;57.818;15.224;2023-02-19T19:56:37;3.20;;;1.20;;
16159;SDS011;8185;57.818;15.224;2023-02-19T19:59:05;6.70;;;1.53;;
16159;SDS011;8185;57.818;15.224;2023-02-19T20:01:36;2.00;;;1.03;;
16159;SDS011;8185;57.818;15.224;2023-02-19T20:04:03;2.43;;;0.80;;
16159;SDS011;8185;57.818;15.224;2023-02-19T20:06:31;1.50;;;0.90;;
16159;SDS011;8185;57.818;15.224;2023-02-19T20:08:58;2.10;;;0.83;;
16159;SDS011;8185;57.818;15.224;2023-02-19T20:11:26;0.93;;;0.70;;
16159;SDS011;8185;57.818;15.224;2023-02-19T20:13:53;4.43;;;1.27;;
16159;SDS011;8185;57.818;15.224;2023-02-19T20:16:25;6.40;;;1.27;;
16159;SDS011;8185;57.818;15.224;2023-02-19T20:18:53;3.13;;;1.33;;
16159;SDS011;8185;57.818;15.224;2023-02-19T20:21:20;2.13;;;1.40;;
16159;SDS011;8185;57.818;15.224;2023-02-19T20:23:47;1.63;;;0.70;;
16159;SDS011;8185;57.818;15.224;2023-02-19T20:26:20;1.60;;;1.00;;
16159;SDS011;8185;57.818;15.224;2023-02-19T20:28:48;1.80;;;1.10;;
16159;SDS011;8185;57.818;15.224;2023-02-19T20:31:16;3.33;;;1.37;;
16159;SDS011;8185;57.818;15.224;2023-02-19T20:33:45;1.90;;;1.10;;
16159;SDS011;8185;57.818;15.224;2023-02-19T20:36:14;2.23;;;1.47;;
16159;SDS011;8185;57.818;15.224;2023-02-19T20:38:41;3.90;;;1.60;;
16159;SDS011;8185;57.818;15.224;2023-02-19T20:41:08;1.43;;;1.17;;
16159;SDS011;8185;57.818;15.224;2023-02-19T20:43:36;1.73;;;1.20;;
16159;SDS011;8185;57.818;15.224;2023-02-19T20:46:03;2.03;;;1.20;;
16159;SDS011;8185;57.818;15.224;2023-02-19T20:48:31;2.40;;;1.20;;
16159;SDS011;8185;57.818;15.224;2023-02-19T20:51:00;1.77;;;1.00;;
16159;SDS011;8185;57.818;15.224;2023-02-19T20:53:27;1.60;;;1.00;;
16159;SDS011;8185;57.818;15.224;2023-02-19T20:55:56;1.63;;;1.07;;
16159;SDS011;8185;57.818;15.224;2023-02-19T20:58:23;2.33;;;1.17;;
16159;SDS011;8185;57.818;15.224;2023-02-19T21:00:51;1.57;;;0.73;;
16159;SDS011;8185;57.818;15.224;2023-02-19T21:03:20;1.60;;;0.80;;
16159;SDS011;8185;57.818;15.224;2023-02-19T21:05:47;2.23;;;0.80;;
16159;SDS011;8185;57.818;15.224;2023-02-19T21:08:16;1.10;;;0.90;;
16159;SDS011;8185;57.818;15.224;2023-02-19T21:10:44;1.13;;;0.70;;
16159;SDS011;8185;57.818;15.224;2023-02-19T21:13:11;1.83;;;1.00;;
16159;SDS011;8185;57.818;15.224;2023-02-19T21:15:39;1.47;;;1.03;;
16159;SDS011;8185;57.818;15.224;2023-02-19T21:18:09;1.67;;;1.00;;
16159;SDS011;8185;57.818;15.224;2023-02-19T21:20:36;1.77;;;0.60;;
16159;SDS011;8185;57.818;15.224;2023-02-19T21:23:03;1.67;;;0.90;;
16159;SDS011;8185;57.818;15.224;2023-02-19T21:25:32;1.83;;;0.90;;
16159;SDS011;8185;57.818;15.224;2023-02-19T21:27:59;1.97;;;0.80;;
16159;SDS011;8185;57.818;15.224;2023-02-19T21:30:27;4.10;;;1.03;;
16159;SDS011;8185;57.818;15.224;2023-02-19T21:32:58;2.60;;;1.10;;
16159;SDS011;8185;57.818;15.224;2023-02-19T21:35:26;1.37;;;1.10;;
16159;SDS011;8185;57.818;15.224;2023-02-19T21:37:53;1.63;;;1.17;;
16159;SDS011;8185;57.818;15.224;2023-02-19T21:40:20;1.43;;;1.03;;
16159;SDS011;8185;57.818;15.224;2023-02-19T21:42:51;2.27;;;0.67;;
16159;SDS011;8185;57.818;15.224;2023-02-19T21:45:18;2.60;;;0.97;;
16159;SDS011;8185;57.818;15.224;2023-02-19T21:47:46;2.40;;;0.80;;
16159;SDS011;8185;57.818;15.224;2023-02-19T21:50:16;2.63;;;0.80;;
16159;SDS011;8185;57.818;15.224;2023-02-19T21:52:43;2.20;;;0.80;;
16159;SDS011;8185;57.818;15.224;2023-02-19T21:55:11;1.83;;;1.10;;
16159;SDS011;8185;57.818;15.224;2023-02-19T21:57:38;2.57;;;1.17;;
16159;SDS011;8185;57.818;15.224;2023-02-19T22:00:07;3.13;;;1.27;;
16159;SDS011;8185;57.818;15.224;2023-02-19T22:02:35;3.73;;;1.70;;
16159;SDS011;8185;57.818;15.224;2023-02-19T22:05:02;3.87;;;1.60;;
16159;SDS011;8185;57.818;15.224;2023-02-19T22:07:30;3.20;;;1.30;;
16159;SDS011;8185;57.818;15.224;2023-02-19T22:09:57;2.50;;;1.40;;
16159;SDS011;8185;57.818;15.224;2023-02-19T22:12:24;4.47;;;1.10;;
16159;SDS011;8185;57.818;15.224;2023-02-19T22:14:51;4.50;;;1.00;;
16159;SDS011;8185;57.818;15.224;2023-02-19T22:17:20;3.17;;;0.93;;
16159;SDS011;8185;57.818;15.224;2023-02-19T22:19:47;1.70;;;0.73;;
16159;SDS011;8185;57.818;15.224;2023-02-19T22:22:14;3.37;;;0.60;;
16159;SDS011;8185;57.818;15.224;2023-02-19T22:24:41;3.27;;;0.80;;
16159;SDS011;8185;57.818;15.224;2023-02-19T22:27:09;2.70;;;0.80;;
16159;SDS011;8185;57.818;15.224;2023-02-19T22:29:36;3.83;;;1.10;;
16159;SDS011;8185;57.818;15.224;2023-02-19T22:32:03;1.57;;;0.70;;
16159;SDS011;8185;57.818;15.224;2023-02-19T22:34:36;1.97;;;0.87;;
16159;SDS011;8185;57.818;15.224;2023-02-19T22:37:04;2.83;;;0.97;;
16159;SDS011;8185;57.818;15.224;2023-02-19T22:39:31;2.93;;;1.03;;
16159;SDS011;8185;57.818;15.224;2023-02-19T22:41:58;2.53;;;0.70;;
16159;SDS011;8185;57.818;15.224;2023-02-19T22:44:26;4.33;;;1.07;;
16159;SDS011;8185;57.818;15.224;2023-02-19T22:46:54;2.23;;;1.13;;
16159;SDS011;8185;57.818;15.224;2023-02-19T22:49:22;2.97;;;0.80;;
16159;SDS011;8185;57.818;15.224;2023-02-19T22:51:52;3.73;;;0.97;;
16159;SDS011;8185;57.818;15.224;2023-02-19T22:54:21;5.43;;;1.07;;
16159;SDS011;8185;57.818;15.224;2023-02-19T22:56:51;1.60;;;0.80;;
16159;SDS011;8185;57.818;15.224;2023-02-19T22:59:18;3.57;;;1.27;;
16159;SDS011;8185;57.818;15.224;2023-02-19T23:01:45;5.83;;;1.00;;
16159;SDS011;8185;57.818;15.224;2023-02-19T23:04:14;1.93;;;0.90;;
16159;SDS011;8185;57.818;15.224;2023-02-19T23:06:42;1.83;;;0.80;;
16159;SDS011;8185;57.818;15.224;2023-02-19T23:09:14;2.17;;;0.80;;
16159;SDS011;8185;57.818;15.224;2023-02-19T23:11:43;2.47;;;0.87;;
16159;SDS011;8185;57.818;15.224;2023-02-19T23:14:10;5.27;;;1.20;;
16159;SDS011;8185;57.818;15.224;2023-02-19T23:16:38;2.77;;;0.90;;
16159;SDS011;8185;57.818;15.224;2023-02-19T23:19:06;2.03;;;0.93;;
16159;SDS011;8185;57.818;15.224;2023-02-19T23:21:35;5.00;;;1.43;;
16159;SDS011;8185;57.818;15.224;2023-02-19T23:24:03;4.40;;;1.57;;
16159;SDS011;8185;57.818;15.224;2023-02-19T23:26:33;1.93;;;1.00;;
16159;SDS011;8185;57.818;15.224;2023-02-19T23:29:00;1.87;;;0.90;;
16159;SDS011;8185;57.818;15.224;2023-02-19T23:31:27;3.20;;;1.20;;
16159;SDS011;8185;57.818;15.224;2023-02-19T23:33:55;2.60;;;1.00;;
16159;SDS011;8185;57.818;15.224;2023-02-19T23:36:22;2.03;;;1.00;;
16159;SDS011;8185;57.818;15.224;2023-02-19T23:38:49;3.70;;;1.00;;
16159;SDS011;8185;57.818;15.224;2023-02-19T23:41:16;3.67;;;1.13;;
16159;SDS011;8185;57.818;15.224;2023-02-19T23:43:45;3.37;;;1.30;;
16159;SDS011;8185;57.818;15.224;2023-02-19T23:46:13;4.70;;;1.30;;
16159;SDS011;8185;57.818;15.224;2023-02-19T23:48:41;3.80;;;1.10;;
16159;SDS011;8185;57.818;15.224;2023-02-19T23:51:08;1.47;;;1.10;;
16159;SDS011;8185;57.818;15.224;2023-02-19T23:53:36;3.17;;;1.27;;
16159;SDS011;8185;57.818;15.224;2023-02-19T23:56:03;2.93;;;1.20;;
16159;SDS011;8185;57.818;15.224;2023-02-19T23:58:31;3.20;;;1.03;;
